createdAt,value
2023-12-29T00:00:47.385Z,427.00
2023-12-29T00:01:42.804Z,424.00
2023-12-29T00:02:37.753Z,427.00
2023-12-29T00:03:32.852Z,425.00
2023-12-29T00:04:27.862Z,429.00
2023-12-29T00:05:23.147Z,429.00
2023-12-29T00:06:18.298Z,426.00
2023-12-29T00:07:13.533Z,432.00
2023-12-29T00:08:08.422Z,429.00
2023-12-29T00:09:03.596Z,424.00
2023-12-29T00:09:58.762Z,426.00
2023-12-29T00:10:53.952Z,429.00
2023-12-29T00:11:49.084Z,428.00
2023-12-29T00:12:44.434Z,422.00
2023-12-29T00:13:39.457Z,431.00
2023-12-29T00:14:34.487Z,431.00
2023-12-29T00:15:29.672Z,427.00
2023-12-29T00:16:24.811Z,423.00
2023-12-29T00:17:20.264Z,424.00
2023-12-29T00:18:15.232Z,424.00
2023-12-29T00:19:10.254Z,424.00
2023-12-29T00:20:05.311Z,430.00
2023-12-29T00:21:06.624Z,425.00
2023-12-29T00:21:56.884Z,427.00
2023-12-29T00:22:50.998Z,426.00
2023-12-29T00:23:46.035Z,424.00
2023-12-29T00:24:41.219Z,421.00
2023-12-29T00:25:36.398Z,427.00
2023-12-29T00:26:31.526Z,427.00
2023-12-29T00:27:26.885Z,430.00
2023-12-29T00:28:21.916Z,432.00
2023-12-29T00:29:17.078Z,427.00
2023-12-29T00:30:12.267Z,424.00
2023-12-29T00:31:07.590Z,429.00
2023-12-29T00:32:03.002Z,422.00
2023-12-29T00:32:57.879Z,421.00
2023-12-29T00:33:53.270Z,420.00
2023-12-29T00:34:48.119Z,425.00
2023-12-29T00:35:43.068Z,427.00
2023-12-29T00:36:38.175Z,426.00
2023-12-29T00:37:33.618Z,423.00
2023-12-29T00:38:28.684Z,429.00
2023-12-29T00:39:23.673Z,427.00
2023-12-29T00:40:18.907Z,430.00
2023-12-29T00:41:13.903Z,429.00
2023-12-29T00:42:09.287Z,429.00
2023-12-29T00:43:04.227Z,427.00
2023-12-29T00:43:59.374Z,422.00
2023-12-29T00:44:54.629Z,427.00
2023-12-29T00:45:49.699Z,427.00
2023-12-29T00:46:44.920Z,425.00
2023-12-29T00:47:40.238Z,431.00
2023-12-29T00:48:35.424Z,422.00
2023-12-29T00:49:31.430Z,429.00
2023-12-29T00:50:26.470Z,426.00
2023-12-29T00:51:21.765Z,429.00
2023-12-29T00:52:16.953Z,423.00
2023-12-29T00:53:12.333Z,425.00
2023-12-29T00:54:07.317Z,423.00
2023-12-29T00:55:02.564Z,424.00
2023-12-29T00:55:57.461Z,424.00
2023-12-29T00:56:52.676Z,422.00
2023-12-29T00:57:47.862Z,422.00
2023-12-29T00:58:43.146Z,433.00
2023-12-29T00:59:38.486Z,419.00
2023-12-29T01:00:33.716Z,422.00
2023-12-29T01:01:28.823Z,430.00
2023-12-29T01:02:23.758Z,418.00
2023-12-29T01:03:18.939Z,422.00
2023-12-29T01:04:14.607Z,428.00
2023-12-29T01:05:09.299Z,425.00
2023-12-29T01:06:04.488Z,429.00
2023-12-29T01:06:59.667Z,428.00
2023-12-29T01:07:54.811Z,426.00
2023-12-29T01:08:50.125Z,430.00
2023-12-29T01:09:45.299Z,429.00
2023-12-29T01:10:40.349Z,429.00
2023-12-29T01:11:35.793Z,424.00
2023-12-29T01:12:30.839Z,424.00
2023-12-29T01:13:25.841Z,428.00
2023-12-29T01:14:21.055Z,422.00
2023-12-29T01:15:16.148Z,423.00
2023-12-29T01:16:11.598Z,420.00
2023-12-29T01:17:06.481Z,420.00
2023-12-29T01:18:01.943Z,424.00
2023-12-29T01:18:57.237Z,421.00
2023-12-29T01:19:52.012Z,424.00
2023-12-29T01:20:47.172Z,417.00
2023-12-29T01:21:42.312Z,429.00
2023-12-29T01:22:37.318Z,428.00
2023-12-29T01:23:32.397Z,418.00
2023-12-29T01:24:33.248Z,423.00
2023-12-29T01:25:23.571Z,431.00
2023-12-29T01:26:17.529Z,426.00
2023-12-29T01:27:12.606Z,426.00
2023-12-29T01:28:07.637Z,428.00
2023-12-29T01:29:02.774Z,426.00
2023-12-29T01:29:57.854Z,430.00
2023-12-29T01:30:52.952Z,426.00
2023-12-29T01:31:48.002Z,423.00
2023-12-29T01:32:43.084Z,420.00
2023-12-29T01:33:38.148Z,430.00
2023-12-29T01:34:33.305Z,424.00
2023-12-29T01:35:28.177Z,429.00
2023-12-29T01:36:25.447Z,425.00
2023-12-29T01:37:18.414Z,420.00
2023-12-29T01:38:13.421Z,429.00
2023-12-29T01:39:09.445Z,429.00
2023-12-29T01:40:04.740Z,424.00
2023-12-29T01:41:00.463Z,419.00
2023-12-29T01:41:55.630Z,425.00
2023-12-29T01:42:50.969Z,430.00
2023-12-29T01:43:46.628Z,428.00
2023-12-29T01:44:41.856Z,437.00
2023-12-29T01:45:46.008Z,436.00
2023-12-29T01:46:33.767Z,432.00
2023-12-29T01:47:28.680Z,434.00
2023-12-29T01:48:23.942Z,430.00
2023-12-29T01:49:20.090Z,427.00
2023-12-29T01:50:15.080Z,426.00
2023-12-29T01:51:10.163Z,432.00
2023-12-29T01:52:06.024Z,424.00
2023-12-29T01:53:01.130Z,434.00
2023-12-29T01:53:56.473Z,431.00
2023-12-29T01:54:52.508Z,432.00
2023-12-29T01:55:47.816Z,428.00
2023-12-29T01:56:43.613Z,431.00
2023-12-29T01:57:38.731Z,429.00
2023-12-29T01:58:34.079Z,433.00
2023-12-29T01:59:29.702Z,427.00
2023-12-29T02:00:24.915Z,431.00
2023-12-29T02:01:20.753Z,428.00
2023-12-29T02:02:15.921Z,423.00
2023-12-29T02:03:11.237Z,421.00
2023-12-29T02:04:07.047Z,424.00
2023-12-29T02:05:02.391Z,425.00
2023-12-29T02:05:57.294Z,427.00
2023-12-29T02:06:53.852Z,431.00
2023-12-29T02:07:49.086Z,427.00
2023-12-29T02:08:44.953Z,424.00
2023-12-29T02:09:40.152Z,425.00
2023-12-29T02:10:35.391Z,428.00
2023-12-29T02:11:31.002Z,422.00
2023-12-29T02:12:26.341Z,424.00
2023-12-29T02:13:22.065Z,430.00
2023-12-29T02:14:17.185Z,427.00
2023-12-29T02:15:12.402Z,426.00
2023-12-29T02:16:08.581Z,425.00
2023-12-29T02:17:03.597Z,430.00
2023-12-29T02:17:59.322Z,423.00
2023-12-29T02:18:55.157Z,423.00
2023-12-29T02:19:50.592Z,421.00
2023-12-29T02:20:46.236Z,425.00
2023-12-29T02:21:41.165Z,424.00
2023-12-29T02:22:36.476Z,426.00
2023-12-29T02:23:32.221Z,425.00
2023-12-29T02:24:27.295Z,425.00
2023-12-29T02:25:23.202Z,416.00
2023-12-29T02:26:18.270Z,424.00
2023-12-29T02:27:13.562Z,429.00
2023-12-29T02:28:09.697Z,426.00
2023-12-29T02:29:04.774Z,431.00
2023-12-29T02:30:00.064Z,425.00
2023-12-29T02:30:56.503Z,432.00
2023-12-29T02:31:51.604Z,431.00
2023-12-29T02:32:47.716Z,425.00
2023-12-29T02:33:42.885Z,425.00
2023-12-29T02:34:38.006Z,428.00
2023-12-29T02:35:33.111Z,424.00
2023-12-29T02:36:28.314Z,427.00
2023-12-29T02:37:24.600Z,423.00
2023-12-29T02:38:19.640Z,426.00
2023-12-29T02:39:15.540Z,420.00
2023-12-29T02:40:10.998Z,426.00
2023-12-29T02:41:05.956Z,427.00
2023-12-29T02:42:01.693Z,429.00
2023-12-29T02:42:56.913Z,426.00
2023-12-29T02:43:52.758Z,430.00
2023-12-29T02:44:47.810Z,423.00
2023-12-29T02:45:43.163Z,429.00
2023-12-29T02:46:39.222Z,424.00
2023-12-29T02:47:34.152Z,419.00
2023-12-29T02:48:29.580Z,425.00
2023-12-29T02:49:25.541Z,426.00
2023-12-29T02:50:20.682Z,431.00
2023-12-29T02:51:15.970Z,427.00
2023-12-29T02:52:11.135Z,434.00
2023-12-29T02:53:08.730Z,428.00
2023-12-29T02:54:03.913Z,431.00
2023-12-29T02:54:58.997Z,427.00
2023-12-29T02:55:54.246Z,432.00
2023-12-29T02:56:49.093Z,434.00
2023-12-29T02:57:44.232Z,431.00
2023-12-29T02:58:39.144Z,426.00
2023-12-29T02:59:34.239Z,429.00
2023-12-29T03:00:29.286Z,431.00
2023-12-29T03:01:24.819Z,428.00
2023-12-29T03:02:19.466Z,430.00
2023-12-29T03:03:14.702Z,432.00
2023-12-29T03:04:09.870Z,425.00
2023-12-29T03:05:05.015Z,432.00
2023-12-29T03:06:00.268Z,431.00
2023-12-29T03:06:55.171Z,433.00
2023-12-29T03:07:50.202Z,433.00
2023-12-29T03:08:45.428Z,427.00
2023-12-29T03:09:40.469Z,429.00
2023-12-29T03:10:35.661Z,430.00
2023-12-29T03:11:30.855Z,429.00
2023-12-29T03:12:25.714Z,437.00
2023-12-29T03:13:20.789Z,428.00
2023-12-29T03:14:15.831Z,428.00
2023-12-29T03:15:10.833Z,426.00
2023-12-29T03:16:06.098Z,425.00
2023-12-29T03:17:00.981Z,432.00
2023-12-29T03:17:56.068Z,427.00
2023-12-29T03:18:51.092Z,433.00
2023-12-29T03:19:46.173Z,434.00
2023-12-29T03:20:41.082Z,431.00
2023-12-29T03:21:36.248Z,435.00
2023-12-29T03:22:33.207Z,436.00
2023-12-29T03:23:28.402Z,431.00
2023-12-29T03:24:23.553Z,431.00
2023-12-29T03:25:18.941Z,433.00
2023-12-29T03:26:14.112Z,433.00
2023-12-29T03:27:09.302Z,430.00
2023-12-29T03:28:04.851Z,428.00
2023-12-29T03:28:59.643Z,424.00
2023-12-29T03:29:54.752Z,436.00
2023-12-29T03:30:50.683Z,439.00
2023-12-29T03:31:45.925Z,429.00
2023-12-29T03:32:41.681Z,439.00
2023-12-29T03:33:36.958Z,431.00
2023-12-29T03:34:32.257Z,430.00
2023-12-29T03:35:27.912Z,438.00
2023-12-29T03:36:23.184Z,432.00
2023-12-29T03:37:18.397Z,437.00
2023-12-29T03:38:14.709Z,429.00
2023-12-29T03:39:09.883Z,438.00
2023-12-29T03:40:05.851Z,434.00
2023-12-29T03:41:00.925Z,436.00
2023-12-29T03:41:56.160Z,442.00
2023-12-29T03:42:52.020Z,439.00
2023-12-29T03:43:47.083Z,438.00
2023-12-29T03:44:42.955Z,438.00
2023-12-29T03:45:38.073Z,435.00
2023-12-29T03:46:33.134Z,434.00
2023-12-29T03:47:28.968Z,436.00
2023-12-29T03:48:24.049Z,438.00
2023-12-29T03:49:19.409Z,434.00
2023-12-29T03:50:15.662Z,423.00
2023-12-29T03:51:10.727Z,432.00
2023-12-29T03:52:06.744Z,433.00
2023-12-29T03:53:01.766Z,435.00
2023-12-29T03:53:57.087Z,429.00
2023-12-29T03:54:52.834Z,431.00
2023-12-29T03:55:47.913Z,436.00
2023-12-29T03:56:43.667Z,427.00
2023-12-29T03:57:39.075Z,429.00
2023-12-29T03:58:34.146Z,429.00
2023-12-29T03:59:29.753Z,428.00
2023-12-29T04:00:25.135Z,428.00
2023-12-29T04:01:20.200Z,429.00
2023-12-29T04:02:16.802Z,431.00
2023-12-29T04:03:11.739Z,429.00
2023-12-29T04:04:07.553Z,428.00
2023-12-29T04:05:02.865Z,429.00
2023-12-29T04:05:57.879Z,423.00
2023-12-29T04:06:53.768Z,425.00
2023-12-29T04:07:49.040Z,432.00
2023-12-29T04:08:44.639Z,427.00
2023-12-29T04:09:39.969Z,426.00
2023-12-29T04:10:35.084Z,429.00
2023-12-29T04:11:31.136Z,428.00
2023-12-29T04:12:26.371Z,433.00
2023-12-29T04:13:21.372Z,425.00
2023-12-29T04:14:17.788Z,423.00
2023-12-29T04:15:13.110Z,432.00
2023-12-29T04:16:09.125Z,426.00
2023-12-29T04:17:04.460Z,426.00
2023-12-29T04:17:59.869Z,432.00
2023-12-29T04:18:55.348Z,433.00
2023-12-29T04:19:50.308Z,438.00
2023-12-29T04:20:46.324Z,428.00
2023-12-29T04:21:41.403Z,428.00
2023-12-29T04:22:36.751Z,430.00
2023-12-29T04:23:32.488Z,426.00
2023-12-29T04:24:27.647Z,434.00
2023-12-29T04:25:22.935Z,428.00
2023-12-29T04:26:18.988Z,429.00
2023-12-29T04:27:14.345Z,433.00
2023-12-29T04:28:10.068Z,425.00
2023-12-29T04:29:05.091Z,428.00
2023-12-29T04:30:00.448Z,431.00
2023-12-29T04:30:55.570Z,426.00
2023-12-29T04:31:50.861Z,441.00
2023-12-29T04:32:46.655Z,433.00
2023-12-29T04:33:41.920Z,436.00
2023-12-29T04:34:37.131Z,441.00
2023-12-29T04:35:33.923Z,461.00
2023-12-29T04:36:29.082Z,440.00
2023-12-29T04:37:25.188Z,449.00
2023-12-29T04:38:20.054Z,441.00
2023-12-29T04:39:15.410Z,505.00
2023-12-29T04:40:11.047Z,451.00
2023-12-29T04:41:06.265Z,445.00
2023-12-29T04:42:02.023Z,496.00
2023-12-29T04:42:57.407Z,447.00
2023-12-29T04:43:52.427Z,440.00
2023-12-29T04:44:48.217Z,470.00
2023-12-29T04:45:43.446Z,446.00
2023-12-29T04:46:38.645Z,443.00
2023-12-29T04:47:33.965Z,454.00
2023-12-29T04:48:29.156Z,439.00
2023-12-29T04:49:24.341Z,439.00
2023-12-29T04:50:19.304Z,441.00
2023-12-29T04:51:17.771Z,434.00
2023-12-29T04:52:13.019Z,441.00
2023-12-29T04:53:08.397Z,444.00
2023-12-29T04:54:03.321Z,443.00
2023-12-29T04:54:58.376Z,432.00
2023-12-29T04:55:53.457Z,439.00
2023-12-29T04:56:48.515Z,434.00
2023-12-29T04:57:43.582Z,428.00
2023-12-29T04:58:38.658Z,439.00
2023-12-29T04:59:33.683Z,428.00
2023-12-29T05:00:28.745Z,437.00
2023-12-29T05:01:23.871Z,432.00
2023-12-29T05:02:18.885Z,426.00
2023-12-29T05:03:14.019Z,436.00
2023-12-29T05:04:09.115Z,430.00
2023-12-29T05:05:04.238Z,428.00
2023-12-29T05:05:59.380Z,430.00
2023-12-29T05:06:54.580Z,428.00
2023-12-29T05:07:49.788Z,428.00
2023-12-29T05:08:44.870Z,430.00
2023-12-29T05:09:39.956Z,433.00
2023-12-29T05:10:34.952Z,425.00
2023-12-29T05:11:29.970Z,431.00
2023-12-29T05:12:25.006Z,433.00
2023-12-29T05:13:20.290Z,432.00
2023-12-29T05:14:15.098Z,434.00
2023-12-29T05:15:10.284Z,435.00
2023-12-29T05:16:05.371Z,441.00
2023-12-29T05:17:00.565Z,429.00
2023-12-29T05:17:55.955Z,435.00
2023-12-29T05:18:51.152Z,432.00
2023-12-29T05:19:46.274Z,427.00
2023-12-29T05:20:41.249Z,429.00
2023-12-29T05:21:36.436Z,432.00
2023-12-29T05:22:31.451Z,437.00
2023-12-29T05:23:26.479Z,434.00
2023-12-29T05:24:21.709Z,424.00
2023-12-29T05:25:16.560Z,437.00
2023-12-29T05:26:11.560Z,427.00
2023-12-29T05:27:06.676Z,432.00
2023-12-29T05:28:02.082Z,438.00
2023-12-29T05:28:56.808Z,444.00
2023-12-29T05:29:51.891Z,433.00
2023-12-29T05:30:46.953Z,430.00
2023-12-29T05:31:42.052Z,438.00
2023-12-29T05:32:37.048Z,428.00
2023-12-29T05:33:32.276Z,429.00
2023-12-29T05:34:27.327Z,429.00
2023-12-29T05:35:22.257Z,430.00
2023-12-29T05:36:17.416Z,431.00
2023-12-29T05:37:12.685Z,431.00
2023-12-29T05:38:07.851Z,433.00
2023-12-29T05:39:03.244Z,432.00
2023-12-29T05:39:58.133Z,432.00
2023-12-29T05:40:53.288Z,431.00
2023-12-29T05:41:48.621Z,427.00
2023-12-29T05:42:43.646Z,433.00
2023-12-29T05:43:38.943Z,436.00
2023-12-29T05:44:34.213Z,433.00
2023-12-29T05:45:29.225Z,433.00
2023-12-29T05:46:24.416Z,431.00
2023-12-29T05:47:19.705Z,432.00
2023-12-29T05:48:15.327Z,430.00
2023-12-29T05:49:10.149Z,429.00
2023-12-29T05:50:05.110Z,434.00
2023-12-29T05:51:00.243Z,434.00
2023-12-29T05:51:55.325Z,428.00
2023-12-29T05:52:50.420Z,432.00
2023-12-29T05:53:48.816Z,430.00
2023-12-29T05:54:43.862Z,427.00
2023-12-29T05:55:39.047Z,429.00
2023-12-29T05:56:34.200Z,429.00
2023-12-29T05:57:29.680Z,433.00
2023-12-29T05:58:24.868Z,432.00
2023-12-29T05:59:20.430Z,427.00
2023-12-29T06:00:15.426Z,425.00
2023-12-29T06:01:12.176Z,428.00
2023-12-29T06:02:07.059Z,427.00
2023-12-29T06:03:02.276Z,428.00
2023-12-29T06:03:57.493Z,426.00
2023-12-29T06:04:52.990Z,429.00
2023-12-29T06:05:48.438Z,427.00
2023-12-29T06:06:43.038Z,424.00
2023-12-29T06:07:38.373Z,428.00
2023-12-29T06:08:33.429Z,434.00
2023-12-29T06:09:28.756Z,435.00
2023-12-29T06:10:23.817Z,433.00
2023-12-29T06:11:19.011Z,427.00
2023-12-29T06:12:14.197Z,431.00
2023-12-29T06:13:09.662Z,435.00
2023-12-29T06:14:04.568Z,435.00
2023-12-29T06:14:59.872Z,441.00
2023-12-29T06:15:55.049Z,444.00
2023-12-29T06:16:50.027Z,437.00
2023-12-29T06:17:45.277Z,445.00
2023-12-29T06:18:40.396Z,438.00
2023-12-29T06:19:35.721Z,441.00
2023-12-29T06:20:30.779Z,442.00
2023-12-29T06:21:25.821Z,440.00
2023-12-29T06:22:20.997Z,442.00
2023-12-29T06:23:16.172Z,436.00
2023-12-29T06:24:11.494Z,440.00
2023-12-29T06:25:06.700Z,434.00
2023-12-29T06:26:01.722Z,438.00
2023-12-29T06:26:56.942Z,436.00
2023-12-29T06:27:52.160Z,436.00
2023-12-29T06:28:47.314Z,435.00
2023-12-29T06:29:42.450Z,442.00
2023-12-29T06:30:37.905Z,434.00
2023-12-29T06:31:32.924Z,433.00
2023-12-29T06:32:28.366Z,428.00
2023-12-29T06:33:23.592Z,433.00
2023-12-29T06:34:18.637Z,439.00
2023-12-29T06:35:13.611Z,431.00
2023-12-29T06:36:08.791Z,441.00
2023-12-29T06:37:04.147Z,430.00
2023-12-29T06:37:59.394Z,426.00
2023-12-29T06:38:54.251Z,437.00
2023-12-29T06:39:49.497Z,436.00
2023-12-29T06:40:44.785Z,434.00
2023-12-29T06:41:39.959Z,434.00
2023-12-29T06:42:35.246Z,433.00
2023-12-29T06:43:30.396Z,436.00
2023-12-29T06:44:25.557Z,438.00
2023-12-29T06:45:20.887Z,440.00
2023-12-29T06:46:15.792Z,438.00
2023-12-29T06:47:11.046Z,439.00
2023-12-29T06:48:06.396Z,439.00
2023-12-29T06:49:01.711Z,455.00
2023-12-29T06:49:56.835Z,455.00
2023-12-29T06:50:51.862Z,440.00
2023-12-29T06:51:46.973Z,440.00
2023-12-29T06:52:42.201Z,440.00
2023-12-29T06:53:37.548Z,446.00
2023-12-29T06:54:32.729Z,442.00
2023-12-29T06:55:27.864Z,451.00
2023-12-29T06:56:23.257Z,440.00
2023-12-29T06:57:18.338Z,443.00
2023-12-29T06:58:13.519Z,441.00
2023-12-29T06:59:08.475Z,440.00
2023-12-29T07:00:03.636Z,440.00
2023-12-29T07:00:58.648Z,433.00
2023-12-29T07:01:53.875Z,434.00
2023-12-29T07:02:48.855Z,438.00
2023-12-29T07:03:44.121Z,431.00
2023-12-29T07:04:39.083Z,430.00
2023-12-29T07:05:34.269Z,429.00
2023-12-29T07:06:29.428Z,434.00
2023-12-29T07:07:24.467Z,430.00
2023-12-29T07:08:19.481Z,440.00
2023-12-29T07:09:14.633Z,431.00
2023-12-29T07:10:09.684Z,430.00
2023-12-29T07:11:04.949Z,431.00
2023-12-29T07:11:59.765Z,434.00
2023-12-29T07:12:54.853Z,429.00
2023-12-29T07:13:49.898Z,436.00
2023-12-29T07:14:45.130Z,440.00
2023-12-29T07:15:40.232Z,435.00
2023-12-29T07:16:35.482Z,439.00
2023-12-29T07:17:30.701Z,438.00
2023-12-29T07:18:25.892Z,435.00
2023-12-29T07:19:21.144Z,432.00
2023-12-29T07:20:16.367Z,440.00
2023-12-29T07:21:11.667Z,437.00
2023-12-29T07:22:07.183Z,434.00
2023-12-29T07:23:02.374Z,434.00
2023-12-29T07:23:57.737Z,433.00
2023-12-29T07:24:53.017Z,438.00
2023-12-29T07:25:48.258Z,441.00
2023-12-29T07:26:43.635Z,468.00
2023-12-29T07:27:39.152Z,436.00
2023-12-29T07:28:34.097Z,478.00
2023-12-29T07:29:29.479Z,441.00
2023-12-29T07:30:24.701Z,438.00
2023-12-29T07:31:20.993Z,436.00
2023-12-29T07:32:16.225Z,441.00
2023-12-29T07:33:11.490Z,456.00
2023-12-29T07:34:06.831Z,441.00
2023-12-29T07:35:02.197Z,437.00
2023-12-29T07:35:57.314Z,439.00
2023-12-29T07:36:52.776Z,440.00
2023-12-29T07:37:48.345Z,434.00
2023-12-29T07:38:43.319Z,434.00
2023-12-29T07:39:38.680Z,435.00
2023-12-29T07:40:33.832Z,434.00
2023-12-29T07:41:29.260Z,433.00
2023-12-29T07:42:24.890Z,433.00
2023-12-29T07:43:19.800Z,431.00
2023-12-29T07:44:15.250Z,434.00
2023-12-29T07:45:10.291Z,431.00
2023-12-29T07:46:05.845Z,439.00
2023-12-29T07:47:01.089Z,425.00
2023-12-29T07:47:56.840Z,431.00
2023-12-29T07:48:51.564Z,433.00
2023-12-29T07:49:46.927Z,429.00
2023-12-29T07:50:42.186Z,433.00
2023-12-29T07:51:37.591Z,431.00
2023-12-29T07:52:33.007Z,429.00
2023-12-29T07:53:28.111Z,429.00
2023-12-29T07:54:23.502Z,421.00
2023-12-29T07:55:18.969Z,431.00
2023-12-29T07:56:14.152Z,426.00
2023-12-29T07:57:09.612Z,425.00
2023-12-29T07:58:06.228Z,430.00
2023-12-29T07:59:01.721Z,429.00
2023-12-29T07:59:56.958Z,424.00
2023-12-29T08:00:52.324Z,421.00
2023-12-29T08:01:47.756Z,423.00
2023-12-29T08:04:07.927Z,424.00
2023-12-29T08:05:02.865Z,424.00
2023-12-29T08:05:58.434Z,423.00
2023-12-29T08:06:53.669Z,410.00
2023-12-29T08:07:49.160Z,418.00
2023-12-29T08:08:44.310Z,413.00
2023-12-29T08:09:39.855Z,413.00
2023-12-29T08:10:35.090Z,411.00
2023-12-29T08:11:30.548Z,422.00
2023-12-29T08:12:25.861Z,423.00
2023-12-29T08:13:21.520Z,418.00
2023-12-29T08:14:16.766Z,411.00
2023-12-29T08:15:12.103Z,410.00
2023-12-29T08:16:07.391Z,416.00
2023-12-29T08:17:02.727Z,406.00
2023-12-29T08:17:58.322Z,420.00
2023-12-29T08:18:53.406Z,419.00
2023-12-29T08:19:48.820Z,411.00
2023-12-29T08:20:44.231Z,417.00
2023-12-29T08:21:39.521Z,417.00
2023-12-29T08:22:34.811Z,417.00
2023-12-29T08:23:30.159Z,421.00
2023-12-29T08:24:25.640Z,423.00
2023-12-29T08:25:20.951Z,426.00
2023-12-29T08:26:16.537Z,425.00
2023-12-29T08:27:11.678Z,421.00
2023-12-29T08:28:07.173Z,421.00
2023-12-29T08:29:02.608Z,426.00
2023-12-29T08:29:57.914Z,427.00
2023-12-29T08:30:53.108Z,422.00
2023-12-29T08:31:48.545Z,421.00
2023-12-29T08:32:43.985Z,422.00
2023-12-29T08:33:39.483Z,421.00
2023-12-29T08:34:34.860Z,419.00
2023-12-29T08:35:30.192Z,424.00
2023-12-29T08:36:25.435Z,420.00
2023-12-29T08:37:21.114Z,422.00
2023-12-29T08:38:16.229Z,423.00
2023-12-29T08:39:11.823Z,416.00
2023-12-29T08:40:07.188Z,418.00
2023-12-29T08:41:02.464Z,421.00
2023-12-29T08:41:57.858Z,423.00
2023-12-29T08:42:53.207Z,423.00
2023-12-29T08:43:48.616Z,427.00
2023-12-29T08:44:44.233Z,426.00
2023-12-29T08:45:39.239Z,424.00
2023-12-29T08:46:34.619Z,417.00
2023-12-29T08:47:29.956Z,425.00
2023-12-29T08:48:25.453Z,429.00
2023-12-29T08:49:21.148Z,428.00
2023-12-29T08:50:16.131Z,430.00
2023-12-29T08:51:11.405Z,425.00
2023-12-29T08:52:06.977Z,427.00
2023-12-29T08:53:02.248Z,420.00
2023-12-29T08:53:57.680Z,422.00
2023-12-29T08:54:53.264Z,424.00
2023-12-29T08:55:48.309Z,417.00
2023-12-29T08:56:43.592Z,415.00
2023-12-29T08:57:39.066Z,408.00
2023-12-29T08:58:34.349Z,409.00
2023-12-29T08:59:29.785Z,411.00
2023-12-29T09:00:25.141Z,405.00
2023-12-29T09:01:20.518Z,408.00
2023-12-29T09:02:15.893Z,413.00
2023-12-29T09:03:11.326Z,424.00
2023-12-29T09:04:06.735Z,432.00
2023-12-29T09:05:02.338Z,429.00
2023-12-29T09:05:57.384Z,430.00
2023-12-29T09:06:52.874Z,430.00
2023-12-29T09:07:48.226Z,430.00
2023-12-29T09:08:43.665Z,436.00
2023-12-29T09:09:39.014Z,438.00
2023-12-29T09:10:34.553Z,443.00
2023-12-29T09:11:29.743Z,438.00
2023-12-29T09:12:25.045Z,442.00
2023-12-29T09:13:20.424Z,436.00
2023-12-29T09:14:15.734Z,436.00
2023-12-29T09:15:11.228Z,433.00
2023-12-29T09:16:06.420Z,441.00
2023-12-29T09:17:01.723Z,434.00
2023-12-29T09:17:57.206Z,444.00
2023-12-29T09:18:52.425Z,452.00
2023-12-29T09:19:51.625Z,452.00
2023-12-29T09:20:44.359Z,445.00
2023-12-29T09:21:38.479Z,440.00
2023-12-29T09:22:33.782Z,438.00
2023-12-29T09:23:29.251Z,443.00
2023-12-29T09:24:24.667Z,442.00
2023-12-29T09:25:20.438Z,452.00
2023-12-29T09:26:15.466Z,442.00
2023-12-29T09:27:10.938Z,435.00
2023-12-29T09:28:06.291Z,447.00
2023-12-29T09:29:01.751Z,447.00
2023-12-29T09:29:57.042Z,447.00
2023-12-29T09:30:52.822Z,445.00
2023-12-29T09:31:47.882Z,444.00
2023-12-29T09:32:43.334Z,443.00
2023-12-29T09:33:38.642Z,433.00
2023-12-29T09:34:34.129Z,438.00
2023-12-29T09:35:29.572Z,432.00
2023-12-29T09:36:24.773Z,432.00
2023-12-29T09:37:20.010Z,436.00
2023-12-29T09:38:15.331Z,435.00
2023-12-29T09:39:10.610Z,432.00
2023-12-29T09:40:06.128Z,435.00
2023-12-29T09:41:01.591Z,435.00
2023-12-29T09:41:56.737Z,432.00
2023-12-29T09:42:52.050Z,438.00
2023-12-29T09:43:47.525Z,430.00
2023-12-29T09:44:42.691Z,433.00
2023-12-29T09:45:38.602Z,430.00
2023-12-29T09:46:33.514Z,431.00
2023-12-29T09:47:29.071Z,426.00
2023-12-29T09:48:24.348Z,427.00
2023-12-29T09:49:19.710Z,425.00
2023-12-29T09:50:15.251Z,430.00
2023-12-29T09:51:10.755Z,428.00
2023-12-29T09:52:05.858Z,433.00
2023-12-29T09:53:01.285Z,423.00
2023-12-29T09:53:56.545Z,423.00
2023-12-29T09:54:51.970Z,428.00
2023-12-29T09:55:47.291Z,432.00
2023-12-29T09:56:42.499Z,429.00
2023-12-29T09:57:38.029Z,423.00
2023-12-29T09:58:33.212Z,429.00
2023-12-29T09:59:28.588Z,423.00
2023-12-29T10:00:24.025Z,430.00
2023-12-29T10:01:19.810Z,433.00
2023-12-29T10:02:14.670Z,425.00
2023-12-29T10:03:09.918Z,431.00
2023-12-29T10:04:05.622Z,432.00
2023-12-29T10:05:00.788Z,441.00
2023-12-29T10:05:56.356Z,430.00
2023-12-29T10:06:51.429Z,428.00
2023-12-29T10:07:46.720Z,429.00
2023-12-29T10:08:42.000Z,435.00
2023-12-29T10:09:37.477Z,428.00
2023-12-29T10:10:32.771Z,425.00
2023-12-29T10:11:28.154Z,426.00
2023-12-29T10:12:23.422Z,424.00
2023-12-29T10:13:18.875Z,431.00
2023-12-29T10:14:14.222Z,431.00
2023-12-29T10:15:09.818Z,425.00
2023-12-29T10:16:05.130Z,427.00
2023-12-29T10:17:00.479Z,428.00
2023-12-29T10:17:55.618Z,431.00
2023-12-29T10:18:51.035Z,427.00
2023-12-29T10:19:46.466Z,431.00
2023-12-29T10:20:41.941Z,422.00
2023-12-29T10:21:37.316Z,433.00
2023-12-29T10:22:32.582Z,429.00
2023-12-29T10:23:27.997Z,430.00
2023-12-29T10:24:23.398Z,431.00
2023-12-29T10:25:18.785Z,434.00
2023-12-29T10:26:14.243Z,425.00
2023-12-29T10:27:09.695Z,432.00
2023-12-29T10:28:04.857Z,429.00
2023-12-29T10:29:00.052Z,426.00
2023-12-29T10:29:55.604Z,431.00
2023-12-29T10:30:50.914Z,433.00
2023-12-29T10:31:46.729Z,426.00
2023-12-29T10:32:41.703Z,427.00
2023-12-29T10:33:37.116Z,427.00
2023-12-29T10:34:32.498Z,430.00
2023-12-29T10:35:28.754Z,430.00
2023-12-29T10:36:23.305Z,424.00
2023-12-29T10:37:18.690Z,422.00
2023-12-29T10:38:14.195Z,427.00
2023-12-29T10:39:09.222Z,428.00
2023-12-29T10:40:04.542Z,423.00
2023-12-29T10:40:59.970Z,429.00
2023-12-29T10:41:55.464Z,433.00
2023-12-29T10:42:50.664Z,427.00
2023-12-29T10:43:45.937Z,432.00
2023-12-29T10:44:41.359Z,433.00
2023-12-29T10:45:36.780Z,436.00
2023-12-29T10:46:32.425Z,418.00
2023-12-29T10:47:27.505Z,413.00
2023-12-29T10:48:23.105Z,414.00
2023-12-29T10:49:18.455Z,418.00
2023-12-29T10:50:13.609Z,428.00
2023-12-29T10:51:08.883Z,416.00
2023-12-29T10:52:04.426Z,416.00
2023-12-29T10:52:59.774Z,418.00
2023-12-29T10:53:55.059Z,414.00
2023-12-29T10:54:50.433Z,414.00
2023-12-29T10:55:45.912Z,421.00
2023-12-29T10:56:41.467Z,427.00
2023-12-29T10:57:36.876Z,417.00
2023-12-29T10:58:32.076Z,422.00
2023-12-29T10:59:27.454Z,415.00
2023-12-29T11:00:22.795Z,421.00
2023-12-29T11:01:18.415Z,420.00
2023-12-29T11:02:13.647Z,424.00
2023-12-29T11:03:08.986Z,423.00
2023-12-29T11:04:04.567Z,423.00
2023-12-29T11:04:59.716Z,425.00
2023-12-29T11:05:55.016Z,423.00
2023-12-29T11:06:50.599Z,427.00
2023-12-29T11:07:45.638Z,423.00
2023-12-29T11:08:40.915Z,426.00
2023-12-29T11:09:36.415Z,422.00
2023-12-29T11:10:31.498Z,420.00
2023-12-29T11:11:27.089Z,420.00
2023-12-29T11:12:22.278Z,414.00
2023-12-29T11:13:20.404Z,423.00
2023-12-29T11:14:12.934Z,417.00
2023-12-29T11:15:08.454Z,420.00
2023-12-29T11:16:03.937Z,408.00
2023-12-29T11:16:59.516Z,413.00
2023-12-29T11:17:54.868Z,413.00
2023-12-29T11:18:50.247Z,412.00
2023-12-29T11:19:45.457Z,417.00
2023-12-29T11:20:40.908Z,423.00
2023-12-29T11:21:36.226Z,422.00
2023-12-29T11:22:31.719Z,418.00
2023-12-29T11:23:26.868Z,418.00
2023-12-29T11:24:28.329Z,424.00
2023-12-29T11:25:18.767Z,420.00
2023-12-29T11:26:13.129Z,414.00
2023-12-29T11:27:09.012Z,415.00
2023-12-29T11:28:04.040Z,430.00
2023-12-29T11:28:59.324Z,419.00
2023-12-29T11:29:54.716Z,427.00
2023-12-29T11:30:50.138Z,423.00
2023-12-29T11:31:45.747Z,422.00